Time;durP1;ratioP1;P1;durP2;ratioP2;P2;SDS_P1;SDS_P2;PMS_P1;PMS_P2;Temp;Humidity;BMP_temperature;BMP_pressure;BME280_temperature;BME280_humidity;BME280_pressure;Samples;Min_cycle;Max_cycle;Signal;HPM_P1;HPM_P2
2024/01/13 00:02:05;;;;;;;7.90;4.40;;;;;;;-4.32;70.58;96004.02;110584;1274;22749;-76
2024/01/13 00:04:33;;;;;;;11.30;5.30;;;;;;;-4.39;70.80;96006.45;110523;1274;22143;-76
2024/01/13 00:07:01;;;;;;;10.60;5.20;;;;;;;-4.40;70.69;96007.78;110569;1274;22153;-76
2024/01/13 00:09:29;;;;;;;15.60;7.20;;;;;;;-4.53;70.21;96006.70;110624;1260;22189;-76
2024/01/13 00:11:57;;;;;;;11.50;6.50;;;;;;;-4.66;70.02;95997.14;110576;1274;22128;-76
2024/01/13 00:14:26;;;;;;;14.00;6.50;;;;;;;-4.75;70.09;95988.30;110576;1274;22349;-76
2024/01/13 00:16:54;;;;;;;15.20;6.40;;;;;;;-4.80;70.20;95977.31;110532;1275;22103;-76
2024/01/13 00:19:23;;;;;;;11.50;5.70;;;;;;;-4.89;69.98;95968.99;110536;1275;22338;-76
2024/01/13 00:21:52;;;;;;;12.60;6.90;;;;;;;-4.94;70.16;95966.67;110562;1274;22122;-76
2024/01/13 00:24:20;;;;;;;11.00;6.40;;;;;;;-4.95;69.93;95964.95;110587;1274;22325;-76
2024/01/13 00:26:48;;;;;;;20.40;9.40;;;;;;;-4.88;69.93;95962.85;110583;1274;22126;-76
2024/01/13 00:29:16;;;;;;;22.60;9.40;;;;;;;-4.87;69.62;95960.50;110619;1274;22146;-76
2024/01/13 00:31:44;;;;;;;12.20;6.70;;;;;;;-4.82;69.85;95956.60;110559;1274;22464;-76
2024/01/13 00:34:13;;;;;;;19.40;7.70;;;;;;;-4.73;69.71;95958.06;110615;1274;22106;-76
2024/01/13 00:36:41;;;;;;;14.40;7.30;;;;;;;-4.69;69.54;95950.71;110610;1270;22380;-76
2024/01/13 00:39:09;;;;;;;14.60;6.90;;;;;;;-4.68;69.70;95943.86;110540;1274;22912;-76
2024/01/13 00:41:38;;;;;;;11.90;6.40;;;;;;;-4.61;69.89;95939.76;110517;1274;22100;-76
2024/01/13 00:44:06;;;;;;;14.10;7.10;;;;;;;-4.58;69.53;95934.52;110553;1274;22854;-76
2024/01/13 00:46:34;;;;;;;9.00;5.40;;;;;;;-4.53;69.12;95933.70;110540;1274;22799;-76
2024/01/13 00:49:02;;;;;;;11.70;6.30;;;;;;;-4.41;68.81;95933.92;110585;1274;22897;-76
2024/01/13 00:51:33;;;;;;;13.30;5.60;;;;;;;-4.35;68.74;95935.90;110585;1274;22146;-76
2024/01/13 00:54:05;;;;;;;13.20;6.20;;;;;;;-4.28;68.86;95925.02;110598;1274;22126;-76
2024/01/13 00:56:39;;;;;;;10.40;6.10;;;;;;;-4.24;68.94;95927.77;110602;1274;22133;-75
2024/01/13 00:59:07;;;;;;;9.30;4.70;;;;;;;-4.19;68.49;95926.09;110562;1274;22123;-76
2024/01/13 01:01:36;;;;;;;13.50;6.60;;;;;;;-4.15;68.22;95919.73;110584;1274;22828;-76
2024/01/13 01:04:04;;;;;;;15.90;7.30;;;;;;;-4.14;68.33;95923.55;110611;1274;22163;-76
2024/01/13 01:06:32;;;;;;;18.00;9.10;;;;;;;-4.13;68.22;95919.33;110591;1274;22167;-75
2024/01/13 01:09:01;;;;;;;18.20;8.10;;;;;;;-4.11;68.34;95912.00;110610;1274;22625;-76
2024/01/13 01:11:29;;;;;;;13.10;5.60;;;;;;;-4.09;68.20;95905.71;110600;1274;22153;-76
2024/01/13 01:13:57;;;;;;;16.30;7.60;;;;;;;-4.09;68.20;95904.52;110609;1274;22106;-76
2024/01/13 01:16:25;;;;;;;15.70;7.30;;;;;;;-4.07;68.50;95894.83;110641;1260;22142;-76
2024/01/13 01:18:53;;;;;;;11.90;6.00;;;;;;;-4.05;68.38;95885.27;110605;1274;22206;-76
2024/01/13 01:21:22;;;;;;;14.20;6.90;;;;;;;-4.01;68.30;95884.91;110543;1274;22104;-76
2024/01/13 01:23:50;;;;;;;15.30;6.10;;;;;;;-3.99;68.44;95884.84;110561;1274;22180;-76
2024/01/13 01:26:18;;;;;;;16.30;7.00;;;;;;;-3.98;68.13;95884.00;110576;1274;22076;-76
2024/01/13 01:28:47;;;;;;;12.10;5.60;;;;;;;-3.95;68.38;95875.73;110601;1274;22126;-76
2024/01/13 01:31:15;;;;;;;18.90;7.40;;;;;;;-3.95;68.34;95874.19;110525;1274;22587;-75
2024/01/13 01:33:44;;;;;;;17.40;8.20;;;;;;;-3.92;68.49;95864.36;110581;1274;22235;-76
2024/01/13 01:36:12;;;;;;;11.90;5.70;;;;;;;-3.89;68.45;95860.69;110606;1274;22151;-76
2024/01/13 01:38:41;;;;;;;16.00;5.60;;;;;;;-3.89;68.01;95859.65;110539;1269;22122;-76
2024/01/13 01:41:14;;;;;;;14.60;6.70;;;;;;;-3.88;67.68;95866.73;110619;1274;22145;-76
2024/01/13 01:43:44;;;;;;;17.30;8.10;;;;;;;-3.86;68.05;95857.52;110537;1274;22122;-76
2024/01/13 01:46:14;;;;;;;16.70;7.10;;;;;;;-3.83;67.78;95853.72;110543;1274;22106;-76
2024/01/13 01:48:43;;;;;;;13.60;7.20;;;;;;;-3.82;68.21;95853.24;110778;1266;23000;-76
2024/01/13 01:51:15;;;;;;;14.30;7.30;;;;;;;-3.77;68.43;95849.84;110526;1274;22513;-76
2024/01/13 01:53:46;;;;;;;14.50;6.70;;;;;;;-3.77;68.28;95843.81;110616;1274;22858;-76
2024/01/13 01:56:18;;;;;;;13.30;6.30;;;;;;;-3.76;68.51;95847.99;110605;1274;22096;-76
2024/01/13 01:58:47;;;;;;;16.00;6.80;;;;;;;-3.77;68.57;95840.20;110544;1274;22611;-76
2024/01/13 02:01:17;;;;;;;9.80;5.70;;;;;;;-3.76;68.37;95840.05;110529;1274;22098;-76
2024/01/13 02:03:46;;;;;;;10.50;5.40;;;;;;;-3.73;67.88;95838.45;110617;1274;22138;-76
2024/01/13 02:06:16;;;;;;;8.10;4.20;;;;;;;-3.76;67.56;95837.48;110545;1274;22761;-75
2024/01/13 02:08:45;;;;;;;12.50;5.80;;;;;;;-3.76;67.42;95840.42;110547;1274;22924;-76
2024/01/13 02:11:13;;;;;;;9.50;5.10;;;;;;;-3.76;67.90;95836.27;110534;1274;22426;-76
2024/01/13 02:13:45;;;;;;;10.60;4.00;;;;;;;-3.78;67.72;95835.88;110587;1274;22917;-76
2024/01/13 02:16:15;;;;;;;9.90;5.00;;;;;;;-3.84;67.82;95833.91;110572;1274;22088;-76
2024/01/13 02:18:44;;;;;;;8.50;4.20;;;;;;;-3.90;68.00;95821.98;110553;1274;22804;-76
2024/01/13 02:21:13;;;;;;;10.50;4.30;;;;;;;-3.93;67.98;95818.42;110511;1274;22125;-76
2024/01/13 02:23:44;;;;;;;8.00;4.20;;;;;;;-3.96;68.07;95808.66;110607;1274;22943;-76
2024/01/13 02:26:12;;;;;;;8.40;4.50;;;;;;;-4.01;67.68;95789.58;110522;1274;22103;-76
2024/01/13 02:28:41;;;;;;;8.70;5.10;;;;;;;-4.01;67.47;95781.70;110496;1274;22101;-76
2024/01/13 02:31:16;;;;;;;9.30;4.20;;;;;;;-4.00;66.83;95772.11;110573;1274;22794;-77
2024/01/13 02:33:50;;;;;;;7.70;3.10;;;;;;;-4.04;66.85;95760.77;110620;1274;22134;-76
2024/01/13 02:36:22;;;;;;;9.50;4.20;;;;;;;-4.08;66.82;95758.02;110546;1274;22919;-76
2024/01/13 02:38:51;;;;;;;7.10;3.70;;;;;;;-4.14;66.49;95756.61;110595;1274;22421;-76
2024/01/13 02:41:19;;;;;;;9.30;4.50;;;;;;;-4.16;66.50;95750.67;110515;1274;22122;-76
2024/01/13 02:43:48;;;;;;;9.40;4.30;;;;;;;-4.22;66.38;95738.40;110609;1274;22119;-76
2024/01/13 02:46:16;;;;;;;8.80;3.90;;;;;;;-4.25;66.68;95741.88;110614;1274;22836;-76
2024/01/13 02:48:50;;;;;;;9.20;4.20;;;;;;;-4.29;66.50;95737.45;110529;1274;22189;-76
2024/01/13 02:51:19;;;;;;;6.80;3.40;;;;;;;-4.30;66.57;95732.40;110525;1274;22202;-76
2024/01/13 02:53:47;;;;;;;6.60;3.20;;;;;;;-4.32;66.70;95730.41;110631;1274;22205;-76
2024/01/13 02:56:16;;;;;;;6.30;3.20;;;;;;;-4.36;66.53;95737.36;110634;1274;22119;-76
2024/01/13 02:58:45;;;;;;;7.70;3.90;;;;;;;-4.37;66.49;95739.70;110592;1274;22780;-76
2024/01/13 03:01:17;;;;;;;7.40;3.90;;;;;;;-4.39;66.50;95746.98;110468;1274;22114;-76
2024/01/13 03:03:52;;;;;;;7.60;3.90;;;;;;;-4.39;66.32;95746.14;110541;1274;22904;-76
2024/01/13 03:06:23;;;;;;;7.40;3.90;;;;;;;-4.41;66.35;95749.49;110521;1274;22131;-76
2024/01/13 03:08:54;;;;;;;8.10;4.20;;;;;;;-4.47;66.32;95738.61;110540;1274;22162;-76
2024/01/13 03:11:24;;;;;;;8.70;4.10;;;;;;;-4.46;66.51;95737.95;110552;1274;22767;-76
2024/01/13 03:13:55;;;;;;;11.20;4.20;;;;;;;-4.46;66.35;95732.11;110535;1274;22879;-76
2024/01/13 03:16:24;;;;;;;9.00;3.50;;;;;;;-4.48;66.39;95727.89;110625;1274;22096;-76
2024/01/13 03:18:52;;;;;;;8.30;4.30;;;;;;;-4.55;66.27;95718.54;110579;1274;22120;-76
2024/01/13 03:21:21;;;;;;;8.00;4.10;;;;;;;-4.53;66.25;95720.66;110580;1274;22242;-76
2024/01/13 03:23:49;;;;;;;6.30;3.60;;;;;;;-4.56;66.24;95717.27;110537;1274;22118;-76
2024/01/13 03:26:18;;;;;;;10.00;4.50;;;;;;;-4.58;66.30;95711.21;110567;1274;22157;-76
2024/01/13 03:28:46;;;;;;;5.80;3.50;;;;;;;-4.57;66.38;95705.77;110501;1274;22322;-76
2024/01/13 03:31:15;;;;;;;9.60;4.40;;;;;;;-4.55;66.32;95703.23;110540;1274;22126;-76
2024/01/13 03:33:45;;;;;;;11.40;4.90;;;;;;;-4.57;66.19;95701.64;110538;1274;22288;-76
2024/01/13 03:36:17;;;;;;;7.70;3.80;;;;;;;-4.53;66.26;95694.55;110424;1274;22119;-76
2024/01/13 03:38:46;;;;;;;8.60;4.30;;;;;;;-4.52;66.09;95689.14;110565;1274;23018;-76
2024/01/13 03:41:19;;;;;;;12.00;4.70;;;;;;;-4.47;66.26;95687.44;110426;1274;22140;-76
2024/01/13 03:43:49;;;;;;;9.80;4.40;;;;;;;-4.48;66.01;95672.63;110514;1274;22919;-76
2024/01/13 03:46:17;;;;;;;8.50;4.50;;;;;;;-4.46;65.86;95668.06;110525;1274;22359;-76
2024/01/13 03:48:46;;;;;;;15.00;5.80;;;;;;;-4.43;65.35;95670.41;110541;1274;22135;-76
2024/01/13 03:51:16;;;;;;;17.40;8.20;;;;;;;-4.39;65.06;95663.02;110529;1274;22119;-76
2024/01/13 03:53:45;;;;;;;4.40;2.90;;;;;;;-4.36;65.22;95668.64;110563;1274;22137;-76
2024/01/13 03:56:14;;;;;;;4.50;3.00;;;;;;;-4.37;65.02;95661.89;110564;1264;22113;-76
2024/01/13 03:58:42;;;;;;;5.00;2.20;;;;;;;-4.40;65.05;95661.98;110614;1274;22237;-76
2024/01/13 04:01:10;;;;;;;6.60;3.10;;;;;;;-4.40;64.19;95660.41;110515;1274;22973;-76
2024/01/13 04:03:39;;;;;;;8.00;3.70;;;;;;;-4.35;64.46;95659.94;110635;1274;22919;-76
2024/01/13 04:06:08;;;;;;;6.60;2.40;;;;;;;-4.36;64.50;95653.01;110621;1274;22177;-76
2024/01/13 04:08:37;;;;;;;7.30;3.90;;;;;;;-4.37;64.20;95647.65;110615;1274;22138;-76
2024/01/13 04:11:10;;;;;;;7.70;3.50;;;;;;;-4.41;64.18;95641.65;110626;1274;22251;-76
2024/01/13 04:13:38;;;;;;;7.50;3.30;;;;;;;-4.45;64.63;95649.91;110516;1274;22141;-76
2024/01/13 04:16:08;;;;;;;7.90;3.00;;;;;;;-4.51;64.73;95657.73;110527;1274;22266;-76
2024/01/13 04:18:38;;;;;;;6.60;3.30;;;;;;;-4.57;64.74;95652.20;110550;1274;22125;-76
2024/01/13 04:21:07;;;;;;;10.10;4.40;;;;;;;-4.57;64.91;95658.02;110611;1274;22103;-76
2024/01/13 04:23:53;;;;;;;7.40;3.80;;;;;;;-4.53;65.43;95658.69;110540;1274;22129;-76
2024/01/13 04:26:24;;;;;;;10.00;4.60;;;;;;;-4.59;65.32;95662.05;110620;1274;22119;-76
2024/01/13 04:28:52;;;;;;;10.80;4.70;;;;;;;-4.71;65.46;95663.48;110614;1274;22203;-77
2024/01/13 04:31:20;;;;;;;40.00;15.80;;;;;;;-4.73;65.97;95664.24;110635;1274;22096;-77
2024/01/13 04:33:48;;;;;;;7.10;3.80;;;;;;;-4.74;66.00;95661.12;110617;1274;22255;-76
2024/01/13 04:36:17;;;;;;;12.50;5.90;;;;;;;-4.74;66.12;95665.08;110526;1274;22779;-76
2024/01/13 04:38:46;;;;;;;6.70;3.90;;;;;;;-4.73;66.31;95663.55;110563;1274;22147;-76
2024/01/13 04:41:14;;;;;;;8.40;3.60;;;;;;;-4.68;65.97;95661.20;110542;1274;22154;-76
2024/01/13 04:43:43;;;;;;;6.70;3.40;;;;;;;-4.70;65.78;95667.98;110546;1274;22126;-76
2024/01/13 04:46:11;;;;;;;6.20;3.20;;;;;;;-4.73;65.76;95666.98;110588;1274;22132;-77
2024/01/13 04:48:39;;;;;;;7.00;3.50;;;;;;;-4.84;65.75;95667.06;110593;1274;22130;-76
2024/01/13 04:51:08;;;;;;;6.90;3.40;;;;;;;-4.91;66.34;95666.95;110550;1274;22889;-76
2024/01/13 04:53:37;;;;;;;7.20;2.80;;;;;;;-4.89;66.79;95664.64;110564;1274;22886;-76
2024/01/13 04:56:05;;;;;;;7.50;3.40;;;;;;;-4.94;66.71;95675.77;110629;1274;22191;-76
2024/01/13 04:58:33;;;;;;;13.30;5.80;;;;;;;-5.04;66.62;95675.50;110564;1274;22283;-76
2024/01/13 05:01:01;;;;;;;30.90;15.10;;;;;;;-5.05;67.18;95676.85;110569;1274;22594;-76
2024/01/13 05:03:30;;;;;;;20.40;11.50;;;;;;;-5.10;66.97;95675.42;110569;1274;22916;-76
2024/01/13 05:05:58;;;;;;;7.20;4.10;;;;;;;-5.12;67.23;95677.19;110624;1274;22159;-76
2024/01/13 05:08:27;;;;;;;64.20;33.00;;;;;;;-5.12;67.30;95674.29;110575;1274;22799;-76
2024/01/13 05:10:55;;;;;;;19.70;10.50;;;;;;;-5.24;67.06;95672.25;110617;1274;22341;-76
2024/01/13 05:13:24;;;;;;;16.80;9.50;;;;;;;-5.31;67.98;95673.98;110554;1274;22117;-76
2024/01/13 05:15:52;;;;;;;19.40;11.00;;;;;;;-5.31;67.86;95678.80;110621;1274;22290;-75
2024/01/13 05:18:20;;;;;;;18.50;10.70;;;;;;;-5.35;67.89;95676.42;110515;1274;22108;-76
2024/01/13 05:20:49;;;;;;;17.40;8.70;;;;;;;-5.36;67.58;95680.83;110614;1274;22122;-76
2024/01/13 05:23:17;;;;;;;16.40;9.40;;;;;;;-5.41;67.35;95682.48;110610;1274;22146;-76
2024/01/13 05:25:45;;;;;;;15.30;8.50;;;;;;;-5.45;67.61;95681.30;110610;1274;22279;-76
2024/01/13 05:28:13;;;;;;;13.90;8.00;;;;;;;-5.47;67.97;95683.77;110603;1274;22142;-76
2024/01/13 05:30:42;;;;;;;9.50;5.30;;;;;;;-5.51;68.17;95688.90;110564;1274;22286;-76
2024/01/13 05:33:10;;;;;;;7.40;3.50;;;;;;;-5.44;68.22;95684.94;110638;1274;22258;-76
2024/01/13 05:35:39;;;;;;;5.10;3.40;;;;;;;-5.26;67.72;95678.84;110590;1274;22967;-76
2024/01/13 05:38:08;;;;;;;9.50;5.40;;;;;;;-5.10;67.35;95679.20;110600;1274;22400;-76
2024/01/13 05:40:40;;;;;;;7.70;4.20;;;;;;;-5.02;66.88;95679.00;110568;1261;22141;-76
2024/01/13 05:43:09;;;;;;;8.30;4.20;;;;;;;-4.99;66.57;95680.85;110089;1274;562199;-76
2024/01/13 05:45:37;;;;;;;7.90;3.10;;;;;;;-4.91;66.57;95674.65;110573;1274;22106;-76
2024/01/13 05:48:06;;;;;;;7.10;3.30;;;;;;;-4.88;65.77;95669.61;110546;1274;22134;-76
2024/01/13 05:50:34;;;;;;;5.70;2.60;;;;;;;-4.86;66.31;95671.62;110545;1274;22100;-76
2024/01/13 05:53:03;;;;;;;7.40;3.20;;;;;;;-4.86;66.02;95665.44;110618;1274;22251;-76
2024/01/13 05:55:31;;;;;;;7.20;3.20;;;;;;;-4.88;66.05;95658.66;110585;1274;22122;-76
2024/01/13 05:57:59;;;;;;;22.40;9.10;;;;;;;-4.86;66.13;95654.11;110637;1274;23002;-76
2024/01/13 06:00:27;;;;;;;14.70;6.80;;;;;;;-4.91;66.13;95649.98;110537;1274;22111;-76
2024/01/13 06:02:57;;;;;;;18.20;7.40;;;;;;;-4.94;66.37;95643.13;110553;1274;22094;-76
2024/01/13 06:05:26;;;;;;;14.60;6.50;;;;;;;-5.01;66.25;95643.73;110562;1274;22995;-76
2024/01/13 06:07:54;;;;;;;10.40;5.20;;;;;;;-4.99;66.56;95642.61;110506;1274;22268;-75
2024/01/13 06:10:22;;;;;;;9.90;4.70;;;;;;;-4.92;66.70;95645.29;110542;1274;22152;-76
2024/01/13 06:12:51;;;;;;;8.40;4.70;;;;;;;-4.86;66.27;95646.59;110555;1274;22275;-76
2024/01/13 06:15:19;;;;;;;32.30;15.00;;;;;;;-4.74;66.07;95641.73;110604;1263;22751;-76
2024/01/13 06:17:47;;;;;;;6.00;3.30;;;;;;;-4.65;65.78;95636.77;110640;1274;22911;-76
2024/01/13 06:20:16;;;;;;;13.90;6.30;;;;;;;-4.56;65.51;95637.80;110552;1274;22306;-76
2024/01/13 06:22:44;;;;;;;11.60;5.20;;;;;;;-4.50;65.34;95640.29;110608;1274;22484;-76
2024/01/13 06:25:12;;;;;;;10.20;4.50;;;;;;;-4.43;65.13;95639.51;110627;1270;22944;-76
2024/01/13 06:27:40;;;;;;;8.90;4.00;;;;;;;-4.38;65.60;95644.00;110547;1274;22297;-76
2024/01/13 06:30:10;;;;;;;7.80;3.80;;;;;;;-4.33;65.68;95639.73;110608;1274;22169;-76
2024/01/13 06:32:39;;;;;;;6.90;3.60;;;;;;;-4.25;65.94;95637.67;110394;1274;23086;-76
2024/01/13 06:35:08;;;;;;;10.50;4.70;;;;;;;-4.16;65.79;95642.63;110539;1274;22124;-76
2024/01/13 06:37:36;;;;;;;8.60;4.80;;;;;;;-4.09;65.48;95643.73;110607;1274;23129;-76
2024/01/13 06:40:05;;;;;;;7.70;3.90;;;;;;;-4.02;65.55;95642.82;110539;1274;22939;-75
2024/01/13 06:42:34;;;;;;;7.90;3.90;;;;;;;-3.93;65.60;95640.58;110600;1274;23071;-76
2024/01/13 06:45:02;;;;;;;11.40;5.40;;;;;;;-3.88;65.39;95635.92;110539;1274;22940;-76
2024/01/13 06:47:32;;;;;;;8.60;4.40;;;;;;;-3.83;64.81;95637.52;110562;1274;22180;-76
2024/01/13 06:50:03;;;;;;;9.90;4.50;;;;;;;-3.76;64.43;95631.73;110578;1274;22185;-76
2024/01/13 06:52:31;;;;;;;10.50;4.70;;;;;;;-3.74;64.71;95631.31;110601;1274;22132;-76
2024/01/13 06:55:00;;;;;;;10.10;4.70;;;;;;;-3.72;64.57;95633.59;110557;1274;22202;-76
2024/01/13 06:57:28;;;;;;;7.10;2.90;;;;;;;-3.71;64.33;95635.01;110614;1274;22100;-76
2024/01/13 06:59:56;;;;;;;8.30;4.20;;;;;;;-3.74;64.42;95630.79;110618;1274;22108;-76
2024/01/13 07:02:24;;;;;;;11.00;5.40;;;;;;;-3.70;64.35;95631.80;110601;1274;22123;-76
2024/01/13 07:04:52;;;;;;;8.30;4.80;;;;;;;-3.65;64.49;95630.40;110590;1274;22163;-76
2024/01/13 07:07:21;;;;;;;9.60;4.10;;;;;;;-3.64;64.45;95633.57;110615;1274;22184;-76
2024/01/13 07:09:53;;;;;;;10.70;5.10;;;;;;;-3.60;64.40;95633.02;110568;1274;22887;-75
2024/01/13 07:12:21;;;;;;;9.50;4.20;;;;;;;-3.49;64.38;95632.02;110594;1270;22108;-76
2024/01/13 07:14:49;;;;;;;8.60;4.40;;;;;;;-3.47;63.53;95638.80;110589;1274;22439;-76
2024/01/13 07:17:18;;;;;;;8.30;4.60;;;;;;;-3.44;63.51;95643.04;110593;1274;22150;-76
2024/01/13 07:19:46;;;;;;;8.00;3.90;;;;;;;-3.42;63.82;95643.77;110616;1274;22475;-75
2024/01/13 07:22:14;;;;;;;7.20;3.40;;;;;;;-3.44;63.71;95647.87;110589;1274;22347;-75
2024/01/13 07:24:43;;;;;;;7.50;3.90;;;;;;;-3.42;63.91;95650.67;110570;1274;22133;-76
2024/01/13 07:27:12;;;;;;;10.60;5.10;;;;;;;-3.39;63.93;95658.18;110629;1274;22128;-75
2024/01/13 07:29:40;;;;;;;8.50;3.90;;;;;;;-3.36;63.87;95655.20;110538;1274;23116;-75
2024/01/13 07:32:22;;;;;;;15.30;6.30;;;;;;;-3.27;63.86;95659.64;110629;1274;22158;-75
2024/01/13 07:34:51;;;;;;;11.00;5.10;;;;;;;-3.22;63.85;95656.20;110580;1274;22123;-76
2024/01/13 07:37:20;;;;;;;16.70;7.20;;;;;;;-3.16;63.80;95647.83;110610;1274;22109;-76
2024/01/13 07:39:48;;;;;;;6.80;4.20;;;;;;;-3.14;63.84;95654.42;110539;1274;22141;-76
2024/01/13 07:42:17;;;;;;;19.30;8.10;;;;;;;-3.15;63.72;95655.23;110608;1274;22288;-76
2024/01/13 07:44:45;;;;;;;24.00;9.00;;;;;;;-3.12;63.39;95663.93;110621;1274;22223;-76
2024/01/13 07:47:14;;;;;;;16.50;7.50;;;;;;;-3.10;63.96;95669.86;110570;1274;22470;-76
2024/01/13 07:49:42;;;;;;;20.10;10.10;;;;;;;-3.06;63.98;95672.93;110508;1274;22323;-75
2024/01/13 07:52:11;;;;;;;18.00;8.70;;;;;;;-3.05;64.16;95676.39;110578;1274;22126;-76
2024/01/13 07:54:39;;;;;;;14.50;7.10;;;;;;;-3.03;64.15;95670.62;110542;1274;22126;-76
2024/01/13 07:57:07;;;;;;;9.80;5.30;;;;;;;-3.03;64.07;95674.08;110585;1274;22964;-76
2024/01/13 07:59:36;;;;;;;15.90;6.80;;;;;;;-3.02;64.19;95667.38;110554;1274;22092;-76
2024/01/13 08:02:04;;;;;;;10.30;5.30;;;;;;;-2.93;64.26;95664.77;110628;1274;22110;-75
2024/01/13 08:04:33;;;;;;;14.10;7.60;;;;;;;-2.88;64.00;95664.58;110630;1274;22517;-76
2024/01/13 08:07:01;;;;;;;11.80;6.50;;;;;;;-2.82;63.76;95667.71;110589;1274;22244;-76
2024/01/13 08:09:29;;;;;;;11.10;5.30;;;;;;;-2.82;63.54;95663.06;110599;1274;22112;-76
2024/01/13 08:11:58;;;;;;;16.40;7.80;;;;;;;-2.79;63.84;95665.59;110589;1274;22133;-75
2024/01/13 08:14:26;;;;;;;17.90;9.60;;;;;;;-2.74;64.21;95671.42;110588;1274;22108;-76
2024/01/13 08:16:54;;;;;;;20.80;9.80;;;;;;;-2.77;64.79;95669.27;110605;1274;22182;-76
2024/01/13 08:19:23;;;;;;;14.40;7.80;;;;;;;-2.75;65.05;95674.66;110574;1272;22144;-76
2024/01/13 08:21:51;;;;;;;23.90;11.30;;;;;;;-2.71;65.29;95672.06;110563;1274;22127;-76
2024/01/13 08:24:20;;;;;;;20.10;9.00;;;;;;;-2.64;65.17;95671.92;110619;1274;22974;-76
2024/01/13 08:26:49;;;;;;;19.50;9.30;;;;;;;-2.62;65.26;95675.96;110584;1274;22186;-76
2024/01/13 08:29:17;;;;;;;19.60;9.70;;;;;;;-2.63;65.45;95681.78;110611;1274;22114;-76
2024/01/13 08:31:48;;;;;;;18.30;8.50;;;;;;;-2.60;65.54;95683.96;110589;1274;22861;-76
2024/01/13 08:34:17;;;;;;;19.10;9.30;;;;;;;-2.53;65.47;95691.75;110614;1274;22913;-76
2024/01/13 08:36:45;;;;;;;16.00;8.60;;;;;;;-2.47;65.21;95693.50;110524;1274;22100;-75
2024/01/13 08:39:14;;;;;;;16.80;8.90;;;;;;;-2.39;65.06;95693.05;110525;1274;22142;-76
2024/01/13 08:41:42;;;;;;;22.90;11.10;;;;;;;-2.32;65.14;95697.23;110565;1274;22843;-76
2024/01/13 08:44:10;;;;;;;16.40;9.50;;;;;;;-2.24;65.14;95697.88;110613;1274;22287;-76
2024/01/13 08:46:38;;;;;;;20.80;10.50;;;;;;;-2.16;65.00;95696.90;110522;1274;22123;-76
2024/01/13 08:49:08;;;;;;;17.50;9.00;;;;;;;-2.10;64.76;95691.40;110612;1274;22192;-76
2024/01/13 08:51:36;;;;;;;20.20;11.10;;;;;;;-2.06;64.52;95688.94;110562;1274;22154;-76
2024/01/13 08:54:06;;;;;;;24.60;11.50;;;;;;;-2.03;64.31;95691.64;110609;1274;23093;-76
2024/01/13 08:56:36;;;;;;;17.60;9.60;;;;;;;-1.96;64.14;95688.75;110395;1274;22240;-76
2024/01/13 08:59:10;;;;;;;13.30;6.60;;;;;;;-1.93;63.82;95687.63;110600;1274;22849;-75
2024/01/13 09:01:39;;;;;;;20.50;10.80;;;;;;;-1.90;63.30;95693.06;110603;1274;22757;-76
2024/01/13 09:04:09;;;;;;;15.90;7.10;;;;;;;-1.88;63.57;95695.37;110566;1274;22164;-76
2024/01/13 09:06:42;;;;;;;21.90;11.10;;;;;;;-1.80;63.47;95697.68;110596;1274;22214;-76
2024/01/13 09:09:11;;;;;;;21.10;11.80;;;;;;;-1.78;63.60;95696.20;110526;1274;22312;-75
2024/01/13 09:11:42;;;;;;;22.00;11.80;;;;;;;-1.75;63.67;95698.02;110612;1274;22138;-76
2024/01/13 09:14:13;;;;;;;25.00;10.80;;;;;;;-1.73;63.67;95695.64;110527;1274;22200;-76
2024/01/13 09:16:46;;;;;;;21.80;11.60;;;;;;;-1.78;63.92;95691.02;110621;1274;22420;-76
2024/01/13 09:19:14;;;;;;;23.60;11.20;;;;;;;-1.73;63.89;95684.59;110592;1274;23160;-76
2024/01/13 09:21:43;;;;;;;23.70;12.20;;;;;;;-1.75;63.66;95678.00;110611;1272;22184;-76
2024/01/13 09:24:16;;;;;;;27.20;12.70;;;;;;;-1.76;63.75;95677.27;110593;1274;22129;-75
2024/01/13 09:26:46;;;;;;;23.10;12.10;;;;;;;-1.80;63.90;95679.21;110521;1274;22108;-76
2024/01/13 09:29:18;;;;;;;24.80;12.50;;;;;;;-1.79;64.21;95676.85;110543;1274;22751;-76
2024/01/13 09:31:49;;;;;;;24.50;11.60;;;;;;;-1.75;64.01;95674.73;110613;1274;22102;-76
2024/01/13 09:34:20;;;;;;;24.50;12.00;;;;;;;-1.78;64.11;95673.58;110641;1274;22119;-76
2024/01/13 09:36:49;;;;;;;22.60;11.50;;;;;;;-1.78;63.83;95663.92;110590;1266;22408;-76
2024/01/13 09:39:21;;;;;;;21.60;12.40;;;;;;;-1.75;63.90;95657.64;110576;1274;22219;-76
2024/01/13 09:41:53;;;;;;;20.70;10.30;;;;;;;-1.72;63.87;95657.58;110626;1274;22182;-76
2024/01/13 09:44:27;;;;;;;21.20;11.00;;;;;;;-1.69;63.74;95660.73;110582;1274;22317;-76
2024/01/13 09:46:58;;;;;;;18.40;10.00;;;;;;;-1.61;63.83;95658.21;110590;1274;22122;-76
2024/01/13 09:49:29;;;;;;;24.70;13.50;;;;;;;-1.51;63.59;95659.55;110592;1274;22178;-76
2024/01/13 09:52:01;;;;;;;24.80;13.00;;;;;;;-1.51;63.36;95663.52;110542;1274;23008;-76
2024/01/13 09:54:30;;;;;;;24.20;12.20;;;;;;;-1.55;63.47;95666.85;110616;1274;22201;-76
2024/01/13 09:56:59;;;;;;;17.20;9.80;;;;;;;-1.51;63.67;95659.70;110543;1274;22098;-76
2024/01/13 09:59:29;;;;;;;28.00;13.20;;;;;;;-1.54;63.44;95651.73;110547;1275;22117;-76
2024/01/13 10:02:03;;;;;;;27.10;13.50;;;;;;;-1.47;63.72;95651.36;110642;1263;22814;-76
2024/01/13 10:04:40;;;;;;;25.60;14.20;;;;;;;-1.42;63.59;95649.29;110611;1274;22128;-76
2024/01/13 10:07:09;;;;;;;30.60;15.30;;;;;;;-1.40;63.50;95648.30;110591;1274;22135;-76
2024/01/13 10:09:38;;;;;;;23.50;11.80;;;;;;;-1.38;63.21;95641.80;110604;1274;22837;-76
2024/01/13 10:12:07;;;;;;;27.10;14.30;;;;;;;-1.37;63.21;95641.33;110417;1274;22123;-76
2024/01/13 10:14:42;;;;;;;24.70;13.10;;;;;;;-1.35;63.25;95634.97;110592;1275;22131;-76
2024/01/13 10:17:12;;;;;;;23.80;12.30;;;;;;;-1.35;63.23;95629.45;110415;1274;23041;-77
2024/01/13 10:19:42;;;;;;;25.00;12.90;;;;;;;-1.31;63.16;95631.81;110556;1274;22141;-76
2024/01/13 10:22:15;;;;;;;24.40;13.80;;;;;;;-1.28;63.02;95629.48;110593;1274;22158;-76
2024/01/13 10:24:44;;;;;;;32.60;14.40;;;;;;;-1.26;63.21;95627.09;110547;1275;22797;-76
2024/01/13 10:27:13;;;;;;;26.60;14.30;;;;;;;-1.30;62.83;95627.70;110587;1274;22196;-76
2024/01/13 10:29:45;;;;;;;24.40;12.60;;;;;;;-1.33;63.04;95630.03;110623;1274;22758;-76
2024/01/13 10:32:13;;;;;;;27.40;15.00;;;;;;;-1.32;63.14;95629.36;110601;1274;22123;-76
2024/01/13 10:34:53;;;;;;;28.00;14.70;;;;;;;-1.36;63.19;95629.42;110641;1274;22103;-76
2024/01/13 10:37:21;;;;;;;24.20;12.40;;;;;;;-1.30;63.18;95632.19;110573;1275;22207;-76
2024/01/13 10:39:50;;;;;;;22.80;11.90;;;;;;;-1.19;63.32;95623.68;110556;1274;22887;-76
2024/01/13 10:42:25;;;;;;;23.90;12.30;;;;;;;-1.08;62.72;95616.54;110512;1274;22158;-76
2024/01/13 10:45:00;;;;;;;32.00;15.30;;;;;;;-1.04;61.96;95619.42;110528;1274;22174;-76
2024/01/13 10:47:31;;;;;;;22.90;12.50;;;;;;;-1.04;61.62;95620.79;110539;1274;22109;-76
2024/01/13 10:50:00;;;;;;;19.40;10.80;;;;;;;-0.97;61.55;95612.88;110545;1274;22169;-76
2024/01/13 10:53:11;;;;;;;24.40;12.00;;;;;;;-0.90;61.36;95618.05;110576;1274;22231;-76
2024/01/13 10:55:39;;;;;;;23.30;12.30;;;;;;;-0.77;61.47;95618.20;110573;1274;22133;-76
2024/01/13 10:58:10;;;;;;;21.10;10.90;;;;;;;-0.72;61.08;95615.41;110613;1274;22120;-76
2024/01/13 11:00:39;;;;;;;19.40;11.10;;;;;;;-0.66;60.71;95615.21;110607;1274;22113;-76
2024/01/13 11:03:07;;;;;;;19.60;10.20;;;;;;;-0.63;60.46;95615.79;110587;1274;22930;-76
2024/01/13 11:05:39;;;;;;;20.60;11.00;;;;;;;-0.61;60.59;95612.90;110600;1274;22140;-76
2024/01/13 11:08:08;;;;;;;18.50;9.50;;;;;;;-0.53;60.56;95604.96;110583;1274;22133;-77
2024/01/13 11:10:45;;;;;;;17.30;8.90;;;;;;;-0.45;60.62;95597.74;110586;1274;22836;-76
2024/01/13 11:13:21;;;;;;;18.70;10.40;;;;;;;-0.32;59.94;95590.60;110581;1274;22151;-76
2024/01/13 11:16:04;;;;;;;20.10;11.30;;;;;;;-0.23;59.78;95580.96;110523;1274;22804;-76
2024/01/13 11:18:40;;;;;;;17.90;9.50;;;;;;;-0.05;59.38;95574.09;110567;1274;22227;-76
2024/01/13 11:21:10;;;;;;;21.70;10.90;;;;;;;0.25;59.09;95573.51;110541;1274;22145;-76
2024/01/13 11:24:10;;;;;;;17.50;9.60;;;;;;;0.54;58.67;95569.27;110592;1274;22843;-77
2024/01/13 11:26:41;;;;;;;16.40;8.40;;;;;;;0.74;57.88;95569.45;110562;1274;22148;-77
2024/01/13 11:29:24;;;;;;;17.10;8.90;;;;;;;0.94;57.37;95566.88;110617;1274;22127;-76
2024/01/13 11:31:58;;;;;;;34.00;14.50;;;;;;;1.14;57.03;95557.00;110552;1274;22961;-77